createdAt,value
2016-05-01T00:00:36.403Z,88.04
2016-05-01T00:01:36.703Z,87.75
2016-05-01T00:02:36.424Z,87.85
2016-05-01T00:03:36.427Z,88.13
2016-05-01T00:04:36.397Z,88.42
2016-05-01T00:05:39.479Z,88.04
2016-05-01T00:06:36.451Z,88.99
2016-05-01T00:07:36.390Z,88.7
2016-05-01T00:08:36.394Z,88.04
2016-05-01T00:09:36.396Z,88.51
2016-05-01T00:10:36.383Z,88.32
2016-05-01T00:11:36.402Z,88.51
2016-05-01T00:12:36.247Z,87.75
2016-05-01T00:13:36.391Z,88.89
2016-05-01T00:14:36.238Z,88.6
2016-05-01T00:15:36.396Z,87.75
2016-05-01T00:16:36.383Z,87.75
2016-05-01T00:17:36.386Z,87.56
2016-05-01T00:18:36.373Z,87.65
2016-05-01T00:19:36.423Z,87.75
2016-05-01T00:20:36.848Z,87.65
2016-05-01T00:21:36.725Z,87.65
2016-05-01T00:22:36.431Z,88.04
2016-05-01T00:23:39.433Z,87.85
2016-05-01T00:24:36.420Z,87.94
2016-05-01T00:25:36.423Z,87.94
2016-05-01T00:26:36.379Z,87.56
2016-05-01T00:27:36.459Z,87.94
2016-05-01T00:28:36.447Z,87.75
2016-05-01T00:29:36.262Z,86.99
2016-05-01T00:30:36.375Z,87.94
2016-05-01T00:31:36.471Z,87.46
2016-05-01T00:32:36.395Z,88.42
2016-05-01T00:33:36.461Z,88.32
2016-05-01T00:34:36.214Z,87.94
2016-05-01T00:35:36.466Z,87.75
2016-05-01T00:36:36.359Z,86.8
2016-05-01T00:37:36.346Z,86.9
2016-05-01T00:38:36.333Z,86.99
2016-05-01T00:39:36.867Z,86.99
2016-05-01T00:40:36.198Z,87.27
2016-05-01T00:41:36.341Z,86.7
2016-05-01T00:42:36.360Z,86.9
2016-05-01T00:43:36.363Z,87.08
2016-05-01T00:44:36.349Z,86.9
2016-05-01T00:45:36.336Z,86.61
2016-05-01T00:46:36.323Z,87.56
2016-05-01T00:47:36.186Z,87.65
2016-05-01T00:48:36.329Z,87.56
2016-05-01T00:49:36.315Z,87.85
2016-05-01T00:50:36.662Z,86.9
2016-05-01T00:51:36.337Z,87.65
2016-05-01T00:52:36.324Z,87.37
2016-05-01T00:53:36.327Z,86.99
2016-05-01T00:54:36.329Z,87.46
2016-05-01T00:55:36.317Z,86.99
2016-05-01T00:56:36.320Z,86.99
2016-05-01T00:57:36.323Z,87.08
2016-05-01T00:58:36.184Z,87.46
2016-05-01T00:59:36.312Z,87.65
2016-05-01T01:00:36.314Z,87.75
2016-05-01T01:01:36.161Z,87.56
2016-05-01T01:02:36.289Z,87.46
2016-05-01T01:03:36.306Z,87.75
2016-05-01T01:04:36.169Z,87.37
2016-05-01T01:05:36.405Z,87.56
2016-05-01T01:06:36.142Z,87.56
2016-05-01T01:07:36.302Z,87.75
2016-05-01T01:08:36.305Z,87.08
2016-05-01T01:09:36.150Z,87.18
2016-05-01T01:10:36.294Z,87.08
2016-05-01T01:11:36.125Z,86.9
2016-05-01T01:12:36.299Z,86.42
2016-05-01T01:13:36.303Z,87.18
2016-05-01T01:14:36.301Z,86.99
2016-05-01T01:15:36.304Z,87.56
2016-05-01T01:16:36.291Z,87.08
2016-05-01T01:17:36.278Z,87.75
2016-05-01T01:18:36.281Z,87.65
2016-05-01T01:19:36.268Z,87.56
2016-05-01T01:20:36.427Z,86.9
2016-05-01T01:21:36.273Z,87.27
2016-05-01T01:22:36.276Z,86.9
2016-05-01T01:23:36.263Z,87.27
2016-05-01T01:24:36.266Z,86.8
2016-05-01T01:25:36.268Z,87.85
2016-05-01T01:26:36.271Z,87.75
2016-05-01T01:27:36.258Z,88.13
2016-05-01T01:28:36.260Z,86.9
2016-05-01T01:29:36.248Z,86.7
2016-05-01T01:30:36.110Z,87.08
2016-05-01T01:31:36.252Z,86.51
2016-05-01T01:32:36.240Z,86.9
2016-05-01T01:33:36.258Z,87.18
2016-05-01T01:34:36.261Z,86.57
2016-05-01T01:35:36.108Z,86.42
2016-05-01T01:36:36.252Z,87.18
2016-05-01T01:37:36.237Z,87.04
2016-05-01T01:38:36.241Z,86.66
2016-05-01T01:39:36.228Z,86.94
2016-05-01T01:40:36.231Z,86.85
2016-05-01T01:41:36.077Z,87.13
2016-05-01T01:42:36.236Z,87.32
2016-05-01T01:43:36.223Z,87.04
2016-05-01T01:44:36.241Z,87.8
2016-05-01T01:45:36.228Z,87.08
2016-05-01T01:46:36.231Z,86.47
2016-05-01T01:47:36.218Z,87.13
2016-05-01T01:48:36.236Z,86.57
2016-05-01T01:49:36.208Z,86.47
2016-05-01T01:50:37.398Z,87.04
2016-05-01T01:51:36.228Z,86.66
2016-05-01T01:52:36.059Z,87.04
2016-05-01T01:53:36.202Z,86.66
2016-05-01T01:54:36.206Z,86.47
2016-05-01T01:55:36.209Z,86.47
2016-05-01T01:56:36.195Z,86.28
2016-05-01T01:57:36.041Z,85.14
2016-05-01T01:58:36.200Z,86.09
2016-05-01T01:59:36.188Z,85.99
2016-05-01T02:00:36.191Z,86.57
2016-05-01T02:01:36.177Z,85.9
2016-05-01T02:02:36.040Z,85.24
2016-05-01T02:03:36.199Z,85.33
2016-05-01T02:04:36.185Z,85.24
2016-05-01T02:05:36.313Z,85.42
2016-05-01T02:06:36.018Z,85.71
2016-05-01T02:07:36.193Z,85.14
2016-05-01T02:08:36.165Z,85.61
2016-05-01T02:09:36.027Z,85.04
2016-05-01T02:10:36.029Z,85.24
2016-05-01T02:11:36.033Z,85.42
2016-05-01T02:12:36.191Z,85.24
2016-05-01T02:13:36.178Z,85.14
2016-05-01T02:14:36.182Z,85.8
2016-05-01T02:15:36.153Z,86.18
2016-05-01T02:16:36.156Z,85.61
2016-05-01T02:17:36.159Z,85.33
2016-05-01T02:18:36.161Z,85.33
2016-05-01T02:19:36.179Z,85.52
2016-05-01T02:20:36.151Z,85.9
2016-05-01T02:21:36.153Z,85.42
2016-05-01T02:22:36.000Z,85.99
2016-05-01T02:23:36.143Z,86.47
2016-05-01T02:24:36.130Z,85.99
2016-05-01T02:25:36.148Z,86.38
2016-05-01T02:26:36.135Z,86.85
2016-05-01T02:27:36.138Z,86.85
2016-05-01T02:28:36.141Z,86.57
2016-05-01T02:29:36.127Z,86.57
2016-05-01T02:30:36.130Z,86.76
2016-05-01T02:31:36.133Z,87.13
2016-05-01T02:32:36.136Z,87.23
2016-05-01T02:33:35.982Z,87.04
2016-05-01T02:34:36.110Z,87.9
2016-05-01T02:35:36.129Z,87.8
2016-05-01T02:36:36.162Z,87.9
2016-05-01T02:37:36.134Z,87.32
2016-05-01T02:38:36.105Z,87.9
2016-05-01T02:39:36.108Z,87.04
2016-05-01T02:40:36.110Z,87.71
2016-05-01T02:41:36.113Z,88.18
2016-05-01T02:42:36.101Z,87.42
2016-05-01T02:43:36.103Z,88.28
2016-05-01T02:44:36.090Z,87.13
2016-05-01T02:45:36.092Z,87.04
2016-05-01T02:46:36.111Z,87.42
2016-05-01T02:47:36.082Z,87.42
2016-05-01T02:48:36.084Z,87.71
2016-05-01T02:49:36.103Z,87.61
2016-05-01T02:50:36.122Z,87.71
2016-05-01T02:51:36.093Z,87.71
2016-05-01T02:52:36.096Z,87.32
2016-05-01T02:53:36.083Z,86.85
2016-05-01T02:54:35.914Z,86.94
2016-05-01T02:55:36.072Z,86.85
2016-05-01T02:56:36.092Z,87.13
2016-05-01T02:57:36.094Z,87.71
2016-05-01T02:58:36.066Z,87.8
2016-05-01T02:59:36.083Z,88.18
2016-05-01T03:00:35.914Z,87.13
2016-05-01T03:01:36.074Z,87.61
2016-05-01T03:02:36.060Z,87.52
2016-05-01T03:03:36.079Z,87.42
2016-05-01T03:04:36.049Z,87.04
2016-05-01T03:05:36.052Z,86.85
2016-05-01T03:06:36.055Z,87.9
2016-05-01T03:07:36.057Z,87.9
2016-05-01T03:08:36.045Z,86.85
2016-05-01T03:09:36.063Z,87.76
2016-05-01T03:10:36.035Z,87.61
2016-05-01T03:11:36.038Z,87.99
2016-05-01T03:12:36.041Z,88.09
2016-05-01T03:13:36.042Z,87.71
2016-05-01T03:14:36.046Z,88.09
2016-05-01T03:15:36.032Z,87.04
2016-05-01T03:16:36.051Z,87.71
2016-05-01T03:17:36.038Z,87.71
2016-05-01T03:18:36.025Z,87.76
2016-05-01T03:19:36.012Z,87.57
2016-05-01T03:20:36.031Z,87.61
2016-05-01T03:21:36.017Z,87.57
2016-05-01T03:22:36.036Z,87.66
2016-05-01T03:23:36.023Z,88.13
2016-05-01T03:24:36.010Z,87.57
2016-05-01T03:25:36.013Z,87.66
2016-05-01T03:26:39.047Z,88.04
2016-05-01T03:27:36.019Z,87.57
2016-05-01T03:28:36.192Z,87.85
2016-05-01T03:29:36.024Z,87.76
2016-05-01T03:30:35.995Z,88.04
2016-05-01T03:31:35.983Z,88.04
2016-05-01T03:32:36.000Z,87.66
2016-05-01T03:33:35.988Z,87.66
2016-05-01T03:34:36.006Z,88.23
2016-05-01T03:35:36.008Z,87.47
2016-05-01T03:36:35.980Z,88.13
2016-05-01T03:37:35.983Z,87.47
2016-05-01T03:38:35.829Z,87.09
2016-05-01T03:39:35.816Z,88.33
2016-05-01T03:40:35.819Z,88.13
2016-05-01T03:41:35.977Z,87.85
2016-05-01T03:42:35.980Z,87.76
2016-05-01T03:43:35.796Z,88.42
2016-05-01T03:44:35.954Z,87.76
2016-05-01T03:45:35.957Z,87.47
2016-05-01T03:46:35.960Z,88.13
2016-05-01T03:47:35.962Z,87.57
2016-05-01T03:48:35.965Z,88.04
2016-05-01T03:49:35.795Z,87.95
2016-05-01T03:50:35.923Z,87.66
2016-05-01T03:51:35.942Z,87.38
2016-05-01T03:52:35.929Z,87.76
2016-05-01T03:53:35.932Z,87.66
2016-05-01T03:54:35.935Z,87.47
2016-05-01T03:55:35.922Z,86.99
2016-05-01T03:56:35.909Z,87.66
2016-05-01T03:57:36.256Z,87.09
2016-05-01T03:58:35.914Z,87.66
2016-05-01T03:59:35.917Z,87.95
2016-05-01T04:00:35.935Z,87.57
2016-05-01T04:01:35.922Z,87.66
2016-05-01T04:02:35.894Z,87.85
2016-05-01T04:03:35.927Z,87.28
2016-05-01T04:04:35.914Z,86.8
2016-05-01T04:05:36.120Z,86.71
2016-05-01T04:06:35.904Z,87.76
2016-05-01T04:07:35.751Z,87.76
2016-05-01T04:08:35.894Z,87.57
2016-05-01T04:09:35.881Z,87.47
2016-05-01T04:10:35.743Z,87.38
2016-05-01T04:11:35.887Z,87.19
2016-05-01T04:12:35.733Z,87.38
2016-05-01T04:13:35.877Z,87.76
2016-05-01T04:14:35.879Z,88.23
2016-05-01T04:15:35.882Z,87.85
2016-05-01T04:16:35.868Z,87.19
2016-05-01T04:17:35.887Z,87.85
2016-05-01T04:18:35.874Z,87.76
2016-05-01T04:19:35.861Z,87.85
2016-05-01T04:20:36.051Z,87.85
2016-05-01T04:21:35.867Z,87.85
2016-05-01T04:22:35.869Z,87.19
2016-05-01T04:23:35.872Z,86.99
2016-05-01T04:24:35.858Z,86.8
2016-05-01T04:25:35.877Z,87.57
2016-05-01T04:26:35.848Z,86.9
2016-05-01T04:27:35.867Z,87.66
2016-05-01T04:28:35.698Z,87.85
2016-05-01T04:29:35.857Z,87.57
2016-05-01T04:30:35.828Z,88.04
2016-05-01T04:31:35.831Z,87.76
2016-05-01T04:32:35.850Z,87.85
2016-05-01T04:33:35.836Z,87.47
2016-05-01T04:34:35.824Z,87.47
2016-05-01T04:35:36.123Z,87.66
2016-05-01T04:36:35.813Z,86.9
2016-05-01T04:37:35.660Z,87.76
2016-05-01T04:38:35.802Z,87.57
2016-05-01T04:39:35.805Z,88.42
2016-05-01T04:40:35.808Z,87.85
2016-05-01T04:41:35.810Z,88.13
2016-05-01T04:42:35.813Z,88.04
2016-05-01T04:43:35.801Z,87.52
2016-05-01T04:44:35.787Z,87.66
2016-05-01T04:45:35.790Z,87.43
2016-05-01T04:46:35.777Z,87.66
2016-05-01T04:47:35.780Z,87.47
2016-05-01T04:48:35.768Z,88.47
2016-05-01T04:49:35.786Z,87.57
2016-05-01T04:50:36.631Z,87.43
2016-05-01T04:51:35.776Z,87.43
2016-05-01T04:52:35.778Z,87.9
2016-05-01T04:53:35.765Z,87.19
2016-05-01T04:54:35.784Z,87.76
2016-05-01T04:55:35.630Z,87.66
2016-05-01T04:56:35.758Z,87.47
2016-05-01T04:57:35.775Z,87.71
2016-05-01T04:58:35.747Z,87.43
2016-05-01T04:59:35.766Z,87.81
2016-05-01T05:00:35.736Z,87.95
2016-05-01T05:01:35.755Z,86.61
2016-05-01T05:02:35.758Z,87.71
2016-05-01T05:03:35.761Z,88.09
2016-05-01T05:04:35.576Z,87.05
2016-05-01T05:05:36.172Z,87.81
2016-05-01T05:06:35.722Z,86.9
2016-05-01T05:07:35.741Z,87.19
2016-05-01T05:08:35.587Z,86.8
2016-05-01T05:09:35.574Z,86.99
2016-05-01T05:10:35.717Z,87.09
2016-05-01T05:11:35.735Z,87.09
2016-05-01T05:12:35.722Z,86.61
2016-05-01T05:13:35.710Z,87.09
2016-05-01T05:14:35.712Z,86.8
2016-05-01T05:15:35.730Z,86.33
2016-05-01T05:16:35.562Z,85.86
2016-05-01T05:17:35.689Z,85.95
2016-05-01T05:18:35.707Z,86.14
2016-05-01T05:19:35.694Z,86.24
2016-05-01T05:20:37.009Z,85.38
2016-05-01T05:21:35.684Z,85.57
2016-05-01T05:22:35.703Z,86.24
2016-05-01T05:23:35.690Z,85.95
2016-05-01T05:24:35.693Z,85.28
2016-05-01T05:25:35.678Z,85.66
2016-05-01T05:26:35.682Z,84.81
2016-05-01T05:27:35.685Z,84.52
2016-05-01T05:28:35.672Z,84.62
2016-05-01T05:29:35.675Z,84.72
2016-05-01T05:30:35.661Z,85.28
2016-05-01T05:31:35.664Z,85
2016-05-01T05:32:35.667Z,84.14
2016-05-01T05:33:35.669Z,84.81
2016-05-01T05:34:35.656Z,85.1
2016-05-01T05:35:35.659Z,84.43
2016-05-01T05:36:35.661Z,84.81
2016-05-01T05:37:35.665Z,84.52
2016-05-01T05:38:35.667Z,83.95
2016-05-01T05:39:35.498Z,84.24
2016-05-01T05:40:35.485Z,84.24
2016-05-01T05:41:35.644Z,84.33
2016-05-01T05:42:35.662Z,84.52
2016-05-01T05:43:35.494Z,84.81
2016-05-01T05:44:35.668Z,84.85
2016-05-01T05:45:35.655Z,84.62
2016-05-01T05:46:35.627Z,83.86
2016-05-01T05:47:35.629Z,84.05
2016-05-01T05:48:35.632Z,83.67
2016-05-01T05:49:35.619Z,84.33
2016-05-01T05:50:35.763Z,84.28
2016-05-01T05:51:35.624Z,83.52
2016-05-01T05:52:35.471Z,84.09
2016-05-01T05:53:35.629Z,83.71
2016-05-01T05:54:35.617Z,83.52
2016-05-01T05:55:35.620Z,83.42
2016-05-01T05:56:35.606Z,82.95
2016-05-01T05:57:35.625Z,83.14
2016-05-01T05:58:35.627Z,82.57
2016-05-01T05:59:35.598Z,82.76
2016-05-01T06:00:35.617Z,82.86
2016-05-01T06:01:35.603Z,82.48
2016-05-01T06:02:35.606Z,83.23
2016-05-01T06:03:35.594Z,82.95
2016-05-01T06:04:35.597Z,82.19
2016-05-01T06:05:36.131Z,82
2016-05-01T06:06:35.586Z,82.19
2016-05-01T06:07:35.619Z,81.52
2016-05-01T06:08:35.452Z,81.52
2016-05-01T06:09:35.595Z,82.28
2016-05-01T06:10:35.597Z,81.14
2016-05-01T06:11:35.443Z,80.86
2016-05-01T06:12:36.090Z,80.95
2016-05-01T06:13:35.606Z,80.13
2016-05-01T06:14:35.562Z,80.13
2016-05-01T06:15:35.580Z,80.33
2016-05-01T06:16:35.567Z,80.61
2016-05-01T06:17:35.569Z,80.76
2016-05-01T06:18:35.557Z,80.04
2016-05-01T06:19:35.560Z,80.42
2016-05-01T06:20:35.469Z,79.66
2016-05-01T06:21:35.565Z,79.85
2016-05-01T06:22:35.568Z,79.09
2016-05-01T06:23:35.586Z,79.47
2016-05-01T06:24:35.402Z,79.66
2016-05-01T06:25:35.560Z,79.57
2016-05-01T06:26:35.579Z,79.09
2016-05-01T06:27:35.565Z,79.66
2016-05-01T06:28:35.552Z,79.38
2016-05-01T06:29:35.540Z,78.42
2016-05-01T06:30:35.542Z,78.8
2016-05-01T06:31:35.546Z,78.61
2016-05-01T06:32:35.563Z,78.42
2016-05-01T06:33:35.394Z,78.52
2016-05-01T06:34:35.538Z,77.85
2016-05-01T06:35:35.556Z,77.76
2016-05-01T06:36:35.559Z,78.14
2016-05-01T06:37:35.546Z,77.56
2016-05-01T06:38:35.392Z,77.95
2016-05-01T06:39:35.536Z,77.61
2016-05-01T06:40:35.539Z,76.46
2016-05-01T06:41:35.542Z,76.46
2016-05-01T06:42:35.403Z,77.42
2016-05-01T06:43:35.547Z,77.98
2016-05-01T06:44:35.533Z,76.65
2016-05-01T06:45:35.380Z,76.46
2016-05-01T06:46:35.383Z,75.04
2016-05-01T06:47:35.369Z,74.27
2016-05-01T06:48:35.544Z,75.23
2016-05-01T06:49:35.547Z,75.23
2016-05-01T06:50:35.562Z,74.56
2016-05-01T06:51:35.606Z,74.65
2016-05-01T06:52:35.668Z,75.04
2016-05-01T06:53:35.682Z,74.56
2016-05-01T06:54:35.727Z,74.37
2016-05-01T06:55:35.755Z,75.04
2016-05-01T06:56:35.773Z,74.56
2016-05-01T06:57:35.775Z,74.08
2016-05-01T06:58:35.793Z,74.12
2016-05-01T06:59:35.812Z,72.88
2016-05-01T07:00:35.822Z,72.97
2016-05-01T07:01:35.847Z,72.6
2016-05-01T07:02:35.682Z,72.02
2016-05-01T07:03:35.831Z,72.16
2016-05-01T07:04:35.839Z,71.3
2016-05-01T07:05:35.955Z,70.53
2016-05-01T07:06:35.849Z,71.11
2016-05-01T07:07:35.854Z,73.11
2016-05-01T07:08:35.844Z,71.73
2016-05-01T07:09:35.848Z,72.02
2016-05-01T07:10:35.853Z,72.41
2016-05-01T07:11:35.714Z,71.77
2016-05-01T07:12:35.844Z,70.34
2016-05-01T07:13:35.862Z,70.63
2016-05-01T07:14:35.850Z,70.44
2016-05-01T07:15:35.869Z,69.58
2016-05-01T07:16:35.873Z,69.96
2016-05-01T07:17:35.890Z,69.2
2016-05-01T07:18:35.848Z,70.44
2016-05-01T07:19:35.865Z,70.06
2016-05-01T07:20:35.869Z,70.25
2016-05-01T07:21:35.856Z,70.34
2016-05-01T07:22:35.859Z,70.06
2016-05-01T07:23:35.877Z,70.53
2016-05-01T07:24:35.864Z,70.5
2016-05-01T07:25:35.851Z,71.17
2016-05-01T07:26:35.869Z,71.55
2016-05-01T07:27:35.872Z,70.97
2016-05-01T07:28:35.859Z,71.11
2016-05-01T07:29:35.862Z,70.97
2016-05-01T07:30:35.864Z,71.55
2016-05-01T07:31:35.726Z,71.93
2016-05-01T07:32:35.854Z,71.93
2016-05-01T07:33:35.857Z,71.73
2016-05-01T07:34:35.719Z,71.83
2016-05-01T07:35:35.706Z,70.72
2016-05-01T07:36:35.864Z,70.15
2016-05-01T07:37:35.853Z,70.34
2016-05-01T07:38:35.870Z,69.43
2016-05-01T07:39:35.857Z,69.14
2016-05-01T07:40:35.860Z,68.85
2016-05-01T07:41:35.863Z,69.1
2016-05-01T07:42:35.866Z,69.96
2016-05-01T07:43:35.868Z,70.06
2016-05-01T07:44:35.886Z,70.25
2016-05-01T07:45:35.871Z,69.68
2016-05-01T07:46:35.874Z,69.77
2016-05-01T07:47:35.877Z,70.53
2016-05-01T07:48:35.863Z,69.23
2016-05-01T07:49:35.741Z,68.66
2016-05-01T07:50:35.712Z,67.8
2016-05-01T07:51:35.871Z,67.04
2016-05-01T07:52:35.718Z,65.74
2016-05-01T07:53:35.704Z,65.07
2016-05-01T07:54:35.863Z,65.74
2016-05-01T07:55:35.866Z,65.39
2016-05-01T07:56:35.869Z,65.1
2016-05-01T07:57:35.871Z,65.48
2016-05-01T07:58:35.890Z,64.34
2016-05-01T07:59:35.752Z,65.17
2016-05-01T08:00:35.880Z,65.17
2016-05-01T08:01:35.882Z,64.62
2016-05-01T08:02:35.745Z,64.25
2016-05-01T08:03:35.872Z,63.57
2016-05-01T08:04:35.890Z,63.1
2016-05-01T08:05:36.377Z,63.03
2016-05-01T08:06:35.881Z,62.11
2016-05-01T08:07:35.883Z,59.91
2016-05-01T08:08:35.900Z,59.72
2016-05-01T08:09:35.889Z,60.01
2016-05-01T08:10:35.923Z,60.1
2016-05-01T08:11:35.909Z,59.34
2016-05-01T08:12:35.897Z,59.08
2016-05-01T08:13:35.914Z,58.67
2016-05-01T08:14:35.902Z,59.53
2016-05-01T08:15:35.763Z,60.3
2016-05-01T08:16:35.907Z,60.1
2016-05-01T08:17:35.910Z,59.53
2016-05-01T08:18:35.913Z,59.81
2016-05-01T08:19:35.915Z,60.58
2016-05-01T08:20:36.137Z,60.3
2016-05-01T08:21:35.936Z,59.53
2016-05-01T08:22:35.924Z,60.01
2016-05-01T08:23:35.942Z,60.68
2016-05-01T08:24:35.944Z,61.6
2016-05-01T08:25:35.946Z,61.79
2016-05-01T08:26:35.934Z,61.89
2016-05-01T08:27:35.952Z,61.69
2016-05-01T08:28:35.970Z,61.79
2016-05-01T08:29:35.943Z,62.27
2016-05-01T08:30:35.961Z,62.75
2016-05-01T08:31:35.948Z,62.08
2016-05-01T08:32:35.965Z,62.55
2016-05-01T08:33:35.954Z,62.18
2016-05-01T08:34:35.956Z,61.89
2016-05-01T08:35:36.178Z,61.06
2016-05-01T08:36:35.962Z,60.68
2016-05-01T08:37:35.964Z,60.2
2016-05-01T08:38:35.967Z,60.39
2016-05-01T08:39:35.985Z,60.2
2016-05-01T08:40:35.956Z,60.74
2016-05-01T08:41:35.974Z,59.15
2016-05-01T08:42:35.978Z,58.29
2016-05-01T08:43:35.980Z,58.48
2016-05-01T08:44:35.997Z,58.67
2016-05-01T08:45:35.969Z,58.38
2016-05-01T08:46:35.972Z,59.24
2016-05-01T08:47:35.991Z,58.95
2016-05-01T08:48:35.838Z,58.58
2016-05-01T08:49:35.996Z,58.67
2016-05-01T08:50:36.358Z,58.86
2016-05-01T08:51:36.001Z,59.24
2016-05-01T08:52:36.004Z,59.72
2016-05-01T08:53:36.022Z,58.67
2016-05-01T08:54:36.009Z,58
2016-05-01T08:55:36.028Z,57.71
2016-05-01T08:56:36.015Z,57.9
2016-05-01T08:57:36.032Z,57.04
2016-05-01T08:58:36.021Z,57.53
2016-05-01T08:59:36.023Z,56.57
2016-05-01T09:00:36.026Z,56.67
2016-05-01T09:01:36.029Z,56.47
2016-05-01T09:02:36.046Z,56.76
2016-05-01T09:03:36.048Z,56.67
2016-05-01T09:04:36.052Z,56.95
2016-05-01T09:05:36.336Z,57.04
2016-05-01T09:06:36.042Z,56.31
2016-05-01T09:07:36.045Z,55.93
2016-05-01T09:08:36.047Z,55.54
2016-05-01T09:09:36.050Z,55.16
2016-05-01T09:10:36.067Z,55.16
2016-05-01T09:11:36.055Z,54.66
2016-05-01T09:12:36.058Z,55.52
2016-05-01T09:13:36.061Z,54.94
2016-05-01T09:14:36.063Z,55.52
2016-05-01T09:15:36.066Z,55.13
2016-05-01T09:16:36.053Z,55.04
2016-05-01T09:17:36.056Z,55.04
2016-05-01T09:18:36.074Z,55.32
2016-05-01T09:19:36.061Z,55.32
2016-05-01T09:20:36.439Z,54.37
2016-05-01T09:21:36.083Z,54.02
2016-05-01T09:22:36.085Z,54.75
2016-05-01T09:23:36.076Z,55.61
2016-05-01T09:24:36.079Z,55.52
2016-05-01T09:25:36.082Z,54.94
2016-05-01T09:26:36.084Z,55.52
2016-05-01T09:27:36.088Z,54.85
2016-05-01T09:28:36.106Z,54.59
2016-05-01T09:29:36.093Z,53.82
2016-05-01T09:30:35.955Z,54.21
2016-05-01T09:31:36.098Z,53.92
2016-05-01T09:32:36.100Z,54.39
2016-05-01T09:33:36.088Z,54.39
2016-05-01T09:34:36.106Z,54.97
2016-05-01T09:35:36.656Z,54.78
2016-05-01T09:36:36.112Z,53.53
2016-05-01T09:37:36.131Z,53.34
2016-05-01T09:38:35.976Z,53.28
2016-05-01T09:39:36.104Z,52.61
2016-05-01T09:40:36.106Z,52.7
2016-05-01T09:41:36.109Z,52.13
2016-05-01T09:42:36.127Z,52.42
2016-05-01T09:43:36.131Z,53.18
2016-05-01T09:44:36.134Z,53.44
2016-05-01T09:45:36.152Z,53.25
2016-05-01T09:46:36.123Z,53.34
2016-05-01T09:47:36.141Z,53.06
2016-05-01T09:48:36.160Z,52.89
2016-05-01T09:49:36.163Z,52.99
2016-05-01T09:50:36.618Z,52.03
2016-05-01T09:51:36.168Z,52.22
2016-05-01T09:52:36.155Z,50.98
2016-05-01T09:53:36.174Z,50.91
2016-05-01T09:54:36.160Z,50.91
2016-05-01T09:55:36.006Z,50.81
2016-05-01T09:56:36.182Z,51.1
2016-05-01T09:57:36.152Z,51.29
2016-05-01T09:58:36.170Z,51.56
2016-05-01T09:59:36.174Z,52.22
2016-05-01T10:00:36.177Z,52.13
2016-05-01T10:01:36.179Z,52.42
2016-05-01T10:02:36.182Z,52.32
2016-05-01T10:03:36.184Z,53.18
2016-05-01T10:04:36.187Z,52.89
2016-05-01T10:05:36.284Z,52.32
2016-05-01T10:06:36.176Z,52.32
2016-05-01T10:07:36.196Z,52.13
2016-05-01T10:08:36.198Z,52.32
2016-05-01T10:09:36.184Z,52.32
2016-05-01T10:10:36.203Z,52.99
2016-05-01T10:11:36.206Z,52.32
2016-05-01T10:12:36.209Z,52.32
2016-05-01T10:13:36.227Z,52.39
2016-05-01T10:14:36.057Z,52.51
2016-05-01T10:15:36.248Z,52.99
2016-05-01T10:16:36.204Z,52.89
2016-05-01T10:17:36.206Z,52.42
2016-05-01T10:18:36.100Z,51.56
2016-05-01T10:19:36.211Z,51.84
2016-05-01T10:20:36.246Z,51.84
2016-05-01T10:21:36.217Z,51.93
2016-05-01T10:22:36.236Z,51.84
2016-05-01T10:23:36.239Z,51.56
2016-05-01T10:24:36.085Z,51.84
2016-05-01T10:25:36.103Z,51.17
2016-05-01T10:26:36.230Z,51.36
2016-05-01T10:27:36.233Z,50.79
2016-05-01T10:28:36.251Z,52.32
2016-05-01T10:29:36.098Z,52.32
2016-05-01T10:30:36.241Z,53.59
2016-05-01T10:31:36.260Z,53.49
2016-05-01T10:32:36.247Z,50.91
2016-05-01T10:33:36.265Z,50.43
2016-05-01T10:34:36.252Z,50.43
2016-05-01T10:35:36.661Z,50.81
2016-05-01T10:36:36.257Z,53.2
2016-05-01T10:37:36.275Z,53.88
2016-05-01T10:38:36.279Z,53.28
2016-05-01T10:39:36.282Z,53.94
2016-05-01T10:40:36.268Z,53.49
2016-05-01T10:41:36.270Z,52.54
2016-05-01T10:42:36.133Z,50.52
2016-05-01T10:43:36.275Z,50.43
2016-05-01T10:44:36.123Z,50.43
2016-05-01T10:45:36.298Z,50.62
2016-05-01T10:46:36.300Z,52.25
2016-05-01T10:47:36.131Z,53.59
2016-05-01T10:48:36.133Z,53.02
2016-05-01T10:49:36.292Z,54.36
2016-05-01T10:50:36.326Z,55.31
2016-05-01T10:51:36.297Z,55.12
2016-05-01T10:52:36.380Z,55.15
2016-05-01T10:53:36.303Z,53.81
2016-05-01T10:54:36.306Z,53.04
2016-05-01T10:55:36.308Z,52.95
2016-05-01T10:56:36.327Z,52.2
2016-05-01T10:57:36.313Z,52.11
2016-05-01T10:58:37.816Z,52.3
2016-05-01T10:59:36.319Z,51.82
2016-05-01T11:00:36.384Z,51.73
2016-05-01T11:01:36.371Z,51.06
2016-05-01T11:02:36.359Z,50.79
2016-05-01T11:03:36.409Z,50.32
2016-05-01T11:04:36.364Z,50.32
2016-05-01T11:05:36.226Z,48.88
2016-05-01T11:06:36.385Z,49.16
2016-05-01T11:07:36.434Z,48.3
2016-05-01T11:08:36.359Z,47.15
2016-05-01T11:09:36.425Z,46.39
2016-05-01T11:10:36.395Z,45.9
2016-05-01T11:11:36.226Z,45.79
2016-05-01T11:12:36.433Z,45.98
2016-05-01T11:13:36.404Z,45.52
2016-05-01T11:14:36.266Z,45.33
2016-05-01T11:15:36.394Z,45.9
2016-05-01T11:16:36.444Z,46
2016-05-01T11:17:36.430Z,44.95
2016-05-01T11:18:36.464Z,45.62
2016-05-01T11:19:36.295Z,45.52
2016-05-01T11:20:36.314Z,45.89
2016-05-01T11:21:36.488Z,45.79
2016-05-01T11:22:36.444Z,45.79
2016-05-01T11:23:36.494Z,46.36
2016-05-01T11:24:36.465Z,46.36
2016-05-01T11:25:36.499Z,46.26
2016-05-01T11:26:36.439Z,46.26
2016-05-01T11:27:36.473Z,46.65
2016-05-01T11:28:36.476Z,46.65
2016-05-01T11:29:36.494Z,46.36
2016-05-01T11:30:36.482Z,45.79
2016-05-01T11:31:36.515Z,45.9
2016-05-01T11:32:36.705Z,46.08
2016-05-01T11:33:36.473Z,46.36
2016-05-01T11:34:36.538Z,46.17
2016-05-01T11:35:36.495Z,46
2016-05-01T11:36:36.498Z,45.43
2016-05-01T11:37:36.546Z,45.52
2016-05-01T11:38:36.503Z,45.9
2016-05-01T11:39:36.552Z,45.33
2016-05-01T11:40:36.508Z,46.1
2016-05-01T11:41:36.542Z,45.9
2016-05-01T11:42:36.529Z,45.04
2016-05-01T11:43:36.531Z,45.33
2016-05-01T11:44:36.550Z,45.14
2016-05-01T11:45:36.505Z,45.14
2016-05-01T11:46:36.539Z,45.23
2016-05-01T11:47:36.511Z,44.95
2016-05-01T11:48:36.358Z,44.95
2016-05-01T11:49:36.578Z,45.33
2016-05-01T11:50:36.754Z,45.52
2016-05-01T11:51:36.569Z,46.1
2016-05-01T11:52:36.586Z,46.1
2016-05-01T11:53:36.575Z,45.81
2016-05-01T11:54:36.561Z,45.72
2016-05-01T11:55:36.533Z,46.08
2016-05-01T11:56:36.613Z,45.23
2016-05-01T11:57:36.632Z,44.47
2016-05-01T11:58:36.572Z,44.66
2016-05-01T11:59:36.559Z,44.95
2016-05-01T12:00:36.577Z,44.95
2016-05-01T12:01:36.705Z,44.95
2016-05-01T12:02:37.051Z,44.66
2016-05-01T12:03:36.898Z,44.66
2016-05-01T12:04:36.573Z,44.37
2016-05-01T12:05:36.575Z,44.76
2016-05-01T12:06:36.890Z,43.8
2016-05-01T12:07:36.705Z,43.53
2016-05-01T12:08:36.709Z,43.23
2016-05-01T12:09:36.837Z,42.67
2016-05-01T12:10:37.042Z,42.57
2016-05-01T12:11:36.732Z,42.1
2016-05-01T12:12:36.734Z,42.21
2016-05-01T12:13:36.534Z,42.21
2016-05-01T12:14:36.818Z,41.44
2016-05-01T12:15:36.680Z,41.16
2016-05-01T12:16:36.823Z,41.35
2016-05-01T12:17:36.872Z,41.54
2016-05-01T12:18:36.610Z,41.35
2016-05-01T12:19:36.644Z,41.44
2016-05-01T12:20:36.647Z,41.35
2016-05-01T12:21:38.025Z,41.16
2016-05-01T12:22:37.231Z,41.44
2016-05-01T12:23:37.014Z,41.25
2016-05-01T12:24:36.657Z,41.44
2016-05-01T12:25:36.644Z,41.54
2016-05-01T12:26:36.522Z,41.73
2016-05-01T12:27:36.806Z,40.96
2016-05-01T12:28:36.746Z,41.83
2016-05-01T12:29:36.671Z,41.44
2016-05-01T12:30:36.720Z,41.25
2016-05-01T12:31:36.646Z,41.44
2016-05-01T12:32:40.210Z,41.44
2016-05-01T12:33:38.010Z,41.54
2016-05-01T12:34:36.685Z,42.11
2016-05-01T12:35:38.265Z,42.02
2016-05-01T12:36:37.565Z,42.11
2016-05-01T12:37:37.286Z,42.1
2016-05-01T12:38:36.820Z,42
2016-05-01T12:39:37.870Z,41.9
2016-05-01T12:40:36.982Z,42.1
2016-05-01T12:41:36.968Z,42.67
2016-05-01T12:42:36.753Z,42.57
2016-05-01T12:43:36.724Z,43.03
2016-05-01T12:44:36.711Z,42.77
2016-05-01T12:45:37.839Z,42.96
2016-05-01T12:46:37.263Z,42.1
2016-05-01T12:47:37.406Z,41.42
2016-05-01T12:48:36.973Z,41.16
2016-05-01T12:49:36.912Z,41.25
2016-05-01T12:50:36.915Z,40.87
2016-05-01T12:51:36.745Z,41.35
2016-05-01T12:52:37.092Z,40.77
2016-05-01T12:53:37.219Z,40.58
2016-05-01T12:54:36.910Z,41.83
2016-05-01T12:55:37.272Z,41.93